createdAt,value
2019-03-06T00:00:27.524Z,3.28
2019-03-06T00:01:38.202Z,3.26
2019-03-06T00:02:48.340Z,3.25
2019-03-06T00:03:58.450Z,3.28
2019-03-06T00:05:08.568Z,3.31
2019-03-06T00:06:21.701Z,3.29
2019-03-06T00:07:31.846Z,3.15
2019-03-06T00:08:41.957Z,3.16
2019-03-06T00:09:52.313Z,3.13
2019-03-06T00:11:02.922Z,3.19
2019-03-06T00:12:13.608Z,3.19
2019-03-06T00:13:24.039Z,3.21
2019-03-06T00:14:34.140Z,3.19
2019-03-06T00:15:44.269Z,3.26
2019-03-06T00:16:54.438Z,3.29
2019-03-06T00:18:04.563Z,3.25
2019-03-06T00:19:14.686Z,3.39
2019-03-06T00:20:24.806Z,3.4
2019-03-06T00:21:34.918Z,3.4
2019-03-06T00:22:45.136Z,3.43
2019-03-06T00:23:55.258Z,3.4
2019-03-06T00:25:05.379Z,3.37
2019-03-06T00:26:15.509Z,3.43
2019-03-06T00:27:25.646Z,3.43
2019-03-06T00:28:35.758Z,3.4
2019-03-06T00:29:45.907Z,3.28
2019-03-06T00:30:56.018Z,3.4
2019-03-06T00:32:06.303Z,3.34
2019-03-06T00:33:16.174Z,3.28
2019-03-06T00:34:26.344Z,3.32
2019-03-06T00:35:36.481Z,3.26
2019-03-06T00:36:46.674Z,3.28
2019-03-06T00:37:56.824Z,3.31
2019-03-06T00:39:06.983Z,3.25
2019-03-06T00:40:17.124Z,3.22
2019-03-06T00:41:27.491Z,3.18
2019-03-06T00:42:38.416Z,3.26
2019-03-06T00:43:48.815Z,3.18
2019-03-06T00:44:59.150Z,3.13
2019-03-06T00:46:09.310Z,3.08
2019-03-06T00:47:19.453Z,3.11
2019-03-06T00:48:29.583Z,3.07
2019-03-06T00:49:41.145Z,3.07
2019-03-06T00:50:51.294Z,3.1
2019-03-06T00:52:01.581Z,3.04
2019-03-06T00:53:11.701Z,3
2019-03-06T00:54:21.828Z,2.99
2019-03-06T00:55:31.944Z,2.99
2019-03-06T00:56:42.073Z,2.96
2019-03-06T00:57:52.180Z,2.99
2019-03-06T00:59:02.283Z,3.04
2019-03-06T01:00:12.164Z,2.92
2019-03-06T01:01:22.292Z,2.94
2019-03-06T01:02:32.414Z,3.02
2019-03-06T01:03:42.597Z,3.08
2019-03-06T01:04:52.727Z,3.04
2019-03-06T01:06:02.875Z,3.04
2019-03-06T01:07:13.025Z,3.04
2019-03-06T01:08:23.152Z,2.96
2019-03-06T01:09:33.285Z,2.96
2019-03-06T01:10:43.425Z,2.94
2019-03-06T01:11:53.776Z,2.88
2019-03-06T01:13:04.392Z,2.96
2019-03-06T01:14:15.237Z,3.02
2019-03-06T01:15:25.634Z,2.91
2019-03-06T01:16:35.755Z,2.85
2019-03-06T01:17:45.896Z,2.88
2019-03-06T01:18:55.764Z,2.87
2019-03-06T01:20:05.884Z,2.79
2019-03-06T01:21:15.989Z,2.74
2019-03-06T01:22:26.104Z,2.77
2019-03-06T01:23:36.237Z,2.71
2019-03-06T01:24:45.991Z,2.73
2019-03-06T01:25:55.850Z,2.67
2019-03-06T01:27:05.971Z,2.6
2019-03-06T01:28:16.076Z,2.67
2019-03-06T01:29:26.179Z,2.53
2019-03-06T01:30:36.296Z,2.56
2019-03-06T01:31:46.413Z,2.53
2019-03-06T01:32:58.148Z,2.51
2019-03-06T01:34:08.392Z,2.51
2019-03-06T01:35:18.509Z,2.46
2019-03-06T01:36:28.627Z,2.49
2019-03-06T01:37:38.739Z,2.46
2019-03-06T01:38:48.856Z,2.46
2019-03-06T01:39:59.045Z,2.48
2019-03-06T01:41:09.152Z,2.42
2019-03-06T01:42:19.476Z,2.44
2019-03-06T01:43:30.053Z,2.42
2019-03-06T01:44:40.629Z,2.39
2019-03-06T01:45:50.961Z,2.45
2019-03-06T01:47:01.070Z,2.42
2019-03-06T01:48:10.936Z,2.45
2019-03-06T01:49:21.052Z,2.45
2019-03-06T01:50:31.176Z,2.51
2019-03-06T01:51:41.281Z,2.53
2019-03-06T01:52:51.436Z,2.62
2019-03-06T01:54:01.553Z,2.63
2019-03-06T01:55:11.666Z,2.56
2019-03-06T01:56:21.776Z,2.6
2019-03-06T01:57:31.880Z,2.55
2019-03-06T01:58:42.009Z,2.56
2019-03-06T01:59:52.123Z,2.62
2019-03-06T02:01:02.264Z,2.63
2019-03-06T02:02:12.404Z,2.56
2019-03-06T02:03:22.269Z,2.56
2019-03-06T02:04:32.394Z,2.66
2019-03-06T02:05:42.503Z,2.66
2019-03-06T02:06:52.623Z,2.63
2019-03-06T02:08:02.965Z,2.66
2019-03-06T02:09:13.077Z,2.62
2019-03-06T02:10:23.199Z,2.62
2019-03-06T02:11:33.321Z,2.71
2019-03-06T02:12:43.424Z,2.77
2019-03-06T02:13:53.693Z,2.7
2019-03-06T02:15:04.082Z,2.74
2019-03-06T02:16:14.968Z,2.69
2019-03-06T02:17:25.532Z,2.71
2019-03-06T02:18:35.646Z,2.66
2019-03-06T02:19:45.774Z,2.7
2019-03-06T02:20:55.908Z,2.74
2019-03-06T02:22:06.010Z,2.71
2019-03-06T02:23:16.143Z,2.73
2019-03-06T02:24:26.266Z,2.71
2019-03-06T02:25:36.374Z,2.77
2019-03-06T02:26:46.475Z,2.78
2019-03-06T02:27:56.573Z,2.71
2019-03-06T02:29:06.688Z,2.7
2019-03-06T02:30:16.798Z,2.73
2019-03-06T02:31:26.920Z,2.67
2019-03-06T02:32:37.061Z,2.66
2019-03-06T02:33:46.931Z,2.63
2019-03-06T02:34:57.052Z,2.55
2019-03-06T02:36:07.251Z,2.52
2019-03-06T02:37:17.375Z,2.48
2019-03-06T02:38:27.504Z,2.49
2019-03-06T02:39:37.610Z,2.45
2019-03-06T02:40:47.741Z,2.42
2019-03-06T02:41:57.873Z,2.42
2019-03-06T02:43:08.005Z,2.39
2019-03-06T02:44:18.129Z,2.34
2019-03-06T02:45:28.242Z,2.45
2019-03-06T02:46:38.135Z,2.44
2019-03-06T02:47:48.277Z,2.41
2019-03-06T02:48:58.748Z,2.42
2019-03-06T02:50:09.426Z,2.41
2019-03-06T02:51:20.167Z,2.39
2019-03-06T02:52:30.733Z,2.31
2019-03-06T02:53:40.718Z,2.33
2019-03-06T02:54:50.855Z,2.31
2019-03-06T02:56:00.981Z,2.27
2019-03-06T02:57:11.097Z,2.42
2019-03-06T02:58:21.237Z,2.27
2019-03-06T02:59:31.007Z,2.24
2019-03-06T03:00:41.135Z,2.26
2019-03-06T03:01:51.312Z,2.21
2019-03-06T03:03:01.461Z,2.16
2019-03-06T03:04:11.602Z,2.19
2019-03-06T03:05:21.497Z,2.16
2019-03-06T03:06:31.648Z,2.23
2019-03-06T03:07:41.760Z,2.13
2019-03-06T03:08:51.875Z,2.12
2019-03-06T03:10:01.992Z,2.16
2019-03-06T03:11:12.126Z,2.12
2019-03-06T03:12:22.243Z,2.16
2019-03-06T03:13:32.347Z,2.09
2019-03-06T03:14:42.453Z,2.1
2019-03-06T03:15:52.333Z,2.09
2019-03-06T03:17:02.462Z,2.1
2019-03-06T03:18:12.623Z,2.01
2019-03-06T03:19:22.770Z,2.06
2019-03-06T03:20:32.944Z,2.05
2019-03-06T03:21:43.118Z,2.01
2019-03-06T03:22:53.227Z,2.01
2019-03-06T03:24:03.635Z,2
2019-03-06T03:25:14.169Z,2.08
2019-03-06T03:26:25.012Z,2.06
2019-03-06T03:27:35.486Z,2.03
2019-03-06T03:28:45.608Z,2.03
2019-03-06T03:29:55.733Z,2
2019-03-06T03:31:06.178Z,2.01
2019-03-06T03:32:16.334Z,2
2019-03-06T03:33:26.481Z,2.06
2019-03-06T03:34:36.619Z,2.08
2019-03-06T03:35:46.734Z,2.06
2019-03-06T03:36:56.859Z,2.09
2019-03-06T03:38:07.003Z,2.08
2019-03-06T03:39:16.752Z,2.01
2019-03-06T03:40:26.504Z,2.06
2019-03-06T03:41:36.622Z,2.16
2019-03-06T03:42:46.744Z,2.13
2019-03-06T03:43:56.891Z,2.06
2019-03-06T03:45:07.028Z,2.1
2019-03-06T03:46:17.238Z,2.1
2019-03-06T03:47:27.348Z,2.13
2019-03-06T03:48:37.487Z,2.12
2019-03-06T03:49:47.262Z,2.05
2019-03-06T03:50:57.392Z,2.16
2019-03-06T03:52:07.518Z,2.16
2019-03-06T03:53:17.648Z,2.12
2019-03-06T03:54:27.570Z,2.08
2019-03-06T03:55:37.690Z,2.13
2019-03-06T03:56:47.819Z,2.1
2019-03-06T03:57:57.688Z,2.06
2019-03-06T03:59:07.812Z,2.06
2019-03-06T04:00:17.936Z,2.06
2019-03-06T04:01:28.418Z,2.03
2019-03-06T04:02:39.050Z,2.03
2019-03-06T04:03:49.750Z,2.03
2019-03-06T04:05:00.444Z,2
2019-03-06T04:06:10.682Z,1.97
2019-03-06T04:07:20.788Z,2.03
2019-03-06T04:08:30.911Z,2.05
2019-03-06T04:09:41.073Z,2.06
2019-03-06T04:10:51.211Z,2.09
2019-03-06T04:12:01.340Z,2.03
2019-03-06T04:13:11.459Z,2
2019-03-06T04:14:21.372Z,2.06
2019-03-06T04:15:31.513Z,2.16
2019-03-06T04:16:41.274Z,2.08
2019-03-06T04:17:51.393Z,2.13
2019-03-06T04:19:01.505Z,2.1
2019-03-06T04:20:11.642Z,2.05
2019-03-06T04:21:21.523Z,2.05
2019-03-06T04:22:31.643Z,2.08
2019-03-06T04:23:41.765Z,2.08
2019-03-06T04:24:51.894Z,2.1
2019-03-06T04:26:02.016Z,2.08
2019-03-06T04:27:12.161Z,2.09
2019-03-06T04:28:22.270Z,2.06
2019-03-06T04:29:33.483Z,1.98
2019-03-06T04:30:43.602Z,2.06
2019-03-06T04:31:53.708Z,2.06
2019-03-06T04:33:03.837Z,2.09
2019-03-06T04:34:14.001Z,2.1
2019-03-06T04:35:24.130Z,2.19
2019-03-06T04:36:34.254Z,2.26
2019-03-06T04:37:44.532Z,2.23
2019-03-06T04:38:55.073Z,2.23
2019-03-06T04:40:05.784Z,2.28
2019-03-06T04:41:16.290Z,2.27
2019-03-06T04:42:26.407Z,2.16
2019-03-06T04:43:36.563Z,2.15
2019-03-06T04:44:46.670Z,2.26
2019-03-06T04:45:56.775Z,2.15
2019-03-06T04:47:06.889Z,2.18
2019-03-06T04:48:17.004Z,2.1
2019-03-06T04:49:27.134Z,2.13
2019-03-06T04:50:37.256Z,2.16
2019-03-06T04:51:47.366Z,2.1
2019-03-06T04:52:58.455Z,2.06
2019-03-06T04:54:08.583Z,2.16
2019-03-06T04:55:18.688Z,2.1
2019-03-06T04:56:28.540Z,2.09
2019-03-06T04:57:38.645Z,2.12
2019-03-06T04:58:48.770Z,2.08
2019-03-06T04:59:58.881Z,2.15
2019-03-06T05:01:09.036Z,2.1
2019-03-06T05:02:19.152Z,2.13
2019-03-06T05:03:29.269Z,2.15
2019-03-06T05:04:39.402Z,2.1
2019-03-06T05:05:49.270Z,2.13
2019-03-06T05:06:59.400Z,2.15
2019-03-06T05:08:10.677Z,2.26
2019-03-06T05:09:20.534Z,2.3
2019-03-06T05:10:30.906Z,2.31
2019-03-06T05:11:41.516Z,2.28
2019-03-06T05:12:52.448Z,2.23
2019-03-06T05:14:02.902Z,2.19
2019-03-06T05:15:13.019Z,2.19
2019-03-06T05:16:23.131Z,2.24
2019-03-06T05:17:33.261Z,2.21
2019-03-06T05:18:45.321Z,2.18
2019-03-06T05:19:55.074Z,2.27
2019-03-06T05:21:05.192Z,2.23
2019-03-06T05:22:15.313Z,2.3
2019-03-06T05:23:25.434Z,2.28
2019-03-06T05:24:35.559Z,2.31
2019-03-06T05:25:45.701Z,2.24
2019-03-06T05:26:55.810Z,2.26
2019-03-06T05:28:05.938Z,2.33
2019-03-06T05:29:16.058Z,2.28
2019-03-06T05:30:26.195Z,2.26
2019-03-06T05:31:36.309Z,2.28
2019-03-06T05:32:46.436Z,2.24
2019-03-06T05:33:56.544Z,2.21
2019-03-06T05:35:06.723Z,2.27
2019-03-06T05:36:16.857Z,2.21
2019-03-06T05:37:26.978Z,2.3
2019-03-06T05:38:37.122Z,2.24
2019-03-06T05:39:47.249Z,2.27
2019-03-06T05:40:57.152Z,2.34
2019-03-06T05:42:07.306Z,2.36
2019-03-06T05:43:17.487Z,2.28
2019-03-06T05:44:28.372Z,2.36
2019-03-06T05:45:38.770Z,2.36
2019-03-06T05:46:48.887Z,2.31
2019-03-06T05:47:59.009Z,2.31
2019-03-06T05:49:09.146Z,2.33
2019-03-06T05:50:20.487Z,2.36
2019-03-06T05:51:30.632Z,2.34
2019-03-06T05:52:40.802Z,2.3
2019-03-06T05:53:50.940Z,2.27
2019-03-06T05:55:01.063Z,2.28
2019-03-06T05:56:12.165Z,2.27
2019-03-06T05:57:22.305Z,2.18
2019-03-06T05:58:32.434Z,2.18
2019-03-06T05:59:42.561Z,2.23
2019-03-06T06:00:52.693Z,2.33
2019-03-06T06:02:02.801Z,2.37
2019-03-06T06:03:12.913Z,2.34
2019-03-06T06:04:23.037Z,2.26
2019-03-06T06:05:33.151Z,2.31
2019-03-06T06:06:43.302Z,2.36
2019-03-06T06:07:53.427Z,2.36
2019-03-06T06:09:03.571Z,2.26
2019-03-06T06:10:13.690Z,2.21
2019-03-06T06:11:24.086Z,2.13
2019-03-06T06:12:34.677Z,2.12
2019-03-06T06:13:45.633Z,2.09
2019-03-06T06:14:56.006Z,2.05
2019-03-06T06:16:06.140Z,2.08
2019-03-06T06:17:16.253Z,2.03
2019-03-06T06:18:26.014Z,2.05
2019-03-06T06:19:36.132Z,2.03
2019-03-06T06:20:46.244Z,2.03
2019-03-06T06:21:56.404Z,1.98
2019-03-06T06:23:06.267Z,1.94
2019-03-06T06:24:16.374Z,2.01
2019-03-06T06:25:26.561Z,2
2019-03-06T06:26:36.754Z,2.09
2019-03-06T06:27:46.883Z,2.01
2019-03-06T06:28:57.001Z,2.01
2019-03-06T06:30:07.120Z,2.06
2019-03-06T06:31:17.246Z,2.06
2019-03-06T06:32:27.365Z,2.13
2019-03-06T06:33:38.398Z,2.15
2019-03-06T06:34:48.514Z,2.24
2019-03-06T06:35:58.386Z,2.26
2019-03-06T06:37:08.499Z,2.28
2019-03-06T06:38:18.613Z,2.28
2019-03-06T06:39:28.712Z,2.34
2019-03-06T06:40:40.639Z,2.31
2019-03-06T06:41:50.797Z,2.33
2019-03-06T06:43:01.256Z,2.36
2019-03-06T06:44:11.720Z,2.33
2019-03-06T06:45:22.561Z,2.44
2019-03-06T06:46:33.017Z,2.46
2019-03-06T06:47:43.176Z,2.6
2019-03-06T06:48:53.292Z,2.69
2019-03-06T06:50:03.639Z,2.63
2019-03-06T06:51:13.752Z,2.66
2019-03-06T06:52:23.870Z,2.67
2019-03-06T06:53:33.974Z,2.69
2019-03-06T06:54:43.835Z,2.77
2019-03-06T06:55:53.700Z,2.7
2019-03-06T06:57:03.829Z,2.78
2019-03-06T06:58:13.946Z,2.81
2019-03-06T06:59:24.084Z,2.81
2019-03-06T07:00:34.195Z,2.7
2019-03-06T07:01:44.308Z,2.78
2019-03-06T07:02:54.438Z,2.74
2019-03-06T07:04:04.499Z,2.78
2019-03-06T07:05:14.354Z,2.77
2019-03-06T07:06:24.216Z,2.82
2019-03-06T07:07:34.346Z,2.82
2019-03-06T07:08:44.684Z,2.91
2019-03-06T07:09:54.834Z,2.87
2019-03-06T07:11:04.951Z,2.85
2019-03-06T07:12:15.344Z,2.89
2019-03-06T07:13:25.756Z,2.94
2019-03-06T07:14:36.245Z,2.96
2019-03-06T07:15:46.736Z,3.07
2019-03-06T07:16:57.549Z,3.07
2019-03-06T07:18:07.784Z,3.13
2019-03-06T07:19:17.887Z,3.24
2019-03-06T07:20:28.002Z,3.32
2019-03-06T07:21:38.126Z,3.28
2019-03-06T07:22:48.259Z,3.24
2019-03-06T07:23:58.423Z,3.4
2019-03-06T07:25:08.310Z,3.44
2019-03-06T07:26:18.419Z,3.49
2019-03-06T07:27:28.563Z,3.61
2019-03-06T07:28:38.688Z,3.62
2019-03-06T07:29:48.805Z,3.69
2019-03-06T07:30:58.935Z,3.72
2019-03-06T07:32:09.050Z,3.8
2019-03-06T07:33:19.168Z,3.85
2019-03-06T07:34:29.287Z,3.97
2019-03-06T07:35:39.449Z,4.04
2019-03-06T07:36:49.626Z,4.16
2019-03-06T07:37:59.772Z,4.36
2019-03-06T07:39:09.891Z,4.62
2019-03-06T07:40:20.009Z,4.68
2019-03-06T07:41:30.560Z,4.73
2019-03-06T07:42:41.246Z,4.98
2019-03-06T07:43:51.598Z,5.24
2019-03-06T07:45:01.718Z,5.51
2019-03-06T07:46:11.837Z,6.31
2019-03-06T07:47:21.974Z,6.95
2019-03-06T07:48:32.129Z,7.82
2019-03-06T07:49:49.858Z,8.52
2019-03-06T07:51:00.022Z,9
2019-03-06T07:52:09.901Z,9.33
2019-03-06T07:53:20.030Z,9.78
2019-03-06T07:54:30.148Z,10.18
2019-03-06T07:55:40.286Z,10.57
2019-03-06T07:56:50.457Z,10.72
2019-03-06T07:58:00.582Z,10.84
2019-03-06T07:59:10.720Z,11.02
2019-03-06T08:00:20.584Z,11.1
2019-03-06T08:01:30.695Z,11.13
2019-03-06T08:02:40.811Z,10.85
2019-03-06T08:03:50.950Z,10.59
2019-03-06T08:05:01.386Z,10.19
2019-03-06T08:06:12.022Z,9.88
2019-03-06T08:07:22.847Z,9.65
2019-03-06T08:08:33.470Z,9.44
2019-03-06T08:09:43.359Z,9.44
2019-03-06T08:10:53.490Z,9.4
2019-03-06T08:12:03.618Z,9.44
2019-03-06T08:13:13.760Z,9.27
2019-03-06T08:14:27.263Z,9.02
2019-03-06T08:15:37.382Z,9.17
2019-03-06T08:16:47.559Z,9.26
2019-03-06T08:17:57.694Z,9.19
2019-03-06T08:19:07.854Z,9.15
2019-03-06T08:20:17.713Z,9.23
2019-03-06T08:21:27.837Z,9.4
2019-03-06T08:22:38.014Z,9.58
2019-03-06T08:23:48.793Z,9.66
2019-03-06T08:24:58.922Z,9.78
2019-03-06T08:26:09.071Z,9.91
2019-03-06T08:27:19.178Z,10.03
2019-03-06T08:28:29.055Z,10.02
2019-03-06T08:29:39.176Z,9.93
2019-03-06T08:30:49.057Z,10
2019-03-06T08:31:58.959Z,10.11
2019-03-06T08:33:17.868Z,10.15
2019-03-06T08:34:28.376Z,10.29
2019-03-06T08:35:38.502Z,10.36
2019-03-06T08:36:48.388Z,10.39
2019-03-06T08:37:58.278Z,10.36
2019-03-06T08:39:08.407Z,10.37
2019-03-06T08:40:18.548Z,10.18
2019-03-06T08:41:28.880Z,9.98
2019-03-06T08:42:39.036Z,9.91
2019-03-06T08:43:49.176Z,9.88
2019-03-06T08:44:59.305Z,9.83
2019-03-06T08:46:09.460Z,9.8
2019-03-06T08:47:19.593Z,9.85
2019-03-06T08:48:29.733Z,9.99
2019-03-06T08:49:39.883Z,10.11
2019-03-06T08:50:50.054Z,10.03
2019-03-06T08:52:00.195Z,9.88
2019-03-06T08:53:10.325Z,9.67
2019-03-06T08:54:20.450Z,9.41
2019-03-06T08:55:30.597Z,9.27
2019-03-06T08:56:40.747Z,9.29
2019-03-06T08:57:50.601Z,9.22
2019-03-06T08:59:00.741Z,9.12
2019-03-06T09:00:11.177Z,9.27
2019-03-06T09:01:21.725Z,9.52
2019-03-06T09:02:32.674Z,9.65
2019-03-06T09:03:42.919Z,9.71
2019-03-06T09:04:53.047Z,9.83
2019-03-06T09:06:03.177Z,9.88
2019-03-06T09:07:13.299Z,9.85
2019-03-06T09:08:23.429Z,9.88
2019-03-06T09:09:33.582Z,9.98
2019-03-06T09:10:43.694Z,10.19
2019-03-06T09:11:53.806Z,10.36
2019-03-06T09:13:03.939Z,10.27
2019-03-06T09:14:14.066Z,10.4
2019-03-06T09:15:26.235Z,10.58
2019-03-06T09:16:36.404Z,10.76
2019-03-06T09:17:46.592Z,10.52
2019-03-06T09:18:56.734Z,10.34
2019-03-06T09:20:06.882Z,10.19
2019-03-06T09:21:17.005Z,9.96
2019-03-06T09:22:26.930Z,9.77
2019-03-06T09:23:37.073Z,9.63
2019-03-06T09:24:47.216Z,9.71
2019-03-06T09:25:57.390Z,9.83
2019-03-06T09:27:07.304Z,9.85
2019-03-06T09:28:17.867Z,9.99
2019-03-06T09:29:28.834Z,10.18
2019-03-06T09:30:39.509Z,10.18
2019-03-06T09:31:49.843Z,10.19
2019-03-06T09:32:59.941Z,9.98
2019-03-06T09:34:10.066Z,9.84
2019-03-06T09:35:20.220Z,9.8
2019-03-06T09:36:30.109Z,9.75
2019-03-06T09:37:40.243Z,9.77
2019-03-06T09:38:50.375Z,9.65
2019-03-06T09:40:00.505Z,9.58
2019-03-06T09:41:11.604Z,9.52
2019-03-06T09:42:23.401Z,9.52
2019-03-06T09:43:33.196Z,9.37
2019-03-06T09:44:43.337Z,9.29
2019-03-06T09:45:53.478Z,9.25
2019-03-06T09:47:03.633Z,9.4
2019-03-06T09:48:15.243Z,9.59
2019-03-06T09:49:25.370Z,9.6
2019-03-06T09:50:35.595Z,9.66
2019-03-06T09:51:45.731Z,9.7
2019-03-06T09:52:55.873Z,9.92
2019-03-06T09:54:06.029Z,10.29
2019-03-06T09:55:16.189Z,10.3
2019-03-06T09:56:26.347Z,10.39
2019-03-06T09:57:36.776Z,10.73
2019-03-06T09:58:47.349Z,10.88
2019-03-06T09:59:58.116Z,11.28
2019-03-06T10:01:08.531Z,11.59
2019-03-06T10:02:18.721Z,11.94
2019-03-06T10:03:28.855Z,12.26
2019-03-06T10:04:39.186Z,12.48
2019-03-06T10:05:49.353Z,12.6
2019-03-06T10:06:59.230Z,12.68
2019-03-06T10:08:09.391Z,12.57
2019-03-06T10:09:19.252Z,12.68
2019-03-06T10:10:29.140Z,12.64
2019-03-06T10:11:39.276Z,12.71
2019-03-06T10:12:52.506Z,12.8
2019-03-06T10:14:02.403Z,12.95
2019-03-06T10:15:12.538Z,13.06
2019-03-06T10:16:23.287Z,13.16
2019-03-06T10:17:35.086Z,13.34
2019-03-06T10:18:45.250Z,13.66
2019-03-06T10:19:55.424Z,13.82
2019-03-06T10:21:05.691Z,13.84
2019-03-06T10:22:15.880Z,14.06
2019-03-06T10:23:26.050Z,14.07
2019-03-06T10:24:35.978Z,14.43
2019-03-06T10:25:46.168Z,14.48
2019-03-06T10:26:56.603Z,14.51
2019-03-06T10:28:13.325Z,14.54
2019-03-06T10:29:32.852Z,14.47
2019-03-06T10:33:12.447Z,14.26
2019-03-06T10:34:22.656Z,14.52
2019-03-06T10:35:33.047Z,14.8
2019-03-06T10:36:43.433Z,15.15
2019-03-06T10:37:53.758Z,15.25
2019-03-06T10:39:04.039Z,15.3
2019-03-06T10:40:14.291Z,15.11
2019-03-06T10:41:24.254Z,14.93
2019-03-06T10:42:34.198Z,14.62
2019-03-06T10:43:52.464Z,14.26
2019-03-06T10:45:02.704Z,14.04
2019-03-06T10:46:12.905Z,14.02
2019-03-06T10:47:23.133Z,13.82
2019-03-06T10:48:33.440Z,13.58
2019-03-06T10:49:43.916Z,13.48
2019-03-06T10:50:54.126Z,13.36
2019-03-06T10:52:04.869Z,13.21
2019-03-06T10:53:15.411Z,13.33
2019-03-06T10:54:25.609Z,13.45
2019-03-06T10:55:36.090Z,13.55
2019-03-06T10:56:46.478Z,13.63
2019-03-06T10:57:56.662Z,13.92
2019-03-06T10:59:06.915Z,14.03
2019-03-06T11:00:17.185Z,13.99
2019-03-06T11:01:27.902Z,13.99
2019-03-06T11:02:38.152Z,13.92
2019-03-06T11:03:48.550Z,14.04
2019-03-06T11:04:58.739Z,13.94
2019-03-06T11:06:08.915Z,13.94
2019-03-06T11:07:19.141Z,13.91
2019-03-06T11:08:30.010Z,13.88
2019-03-06T11:09:40.262Z,14.02
2019-03-06T11:10:50.495Z,14
2019-03-06T11:12:00.926Z,13.94
2019-03-06T11:13:13.456Z,13.82
2019-03-06T11:14:23.681Z,13.71
2019-03-06T11:15:33.914Z,13.61
2019-03-06T11:16:44.397Z,13.59
2019-03-06T11:17:55.756Z,13.61
2019-03-06T11:19:06.410Z,13.71
2019-03-06T11:20:16.690Z,13.85
2019-03-06T11:21:26.874Z,14.04
2019-03-06T11:22:37.042Z,13.96
2019-03-06T11:23:47.208Z,13.95
2019-03-06T11:24:57.358Z,13.94
2019-03-06T11:26:07.543Z,14.04
2019-03-06T11:27:17.737Z,14
2019-03-06T11:28:27.936Z,13.99
2019-03-06T11:29:37.883Z,14
2019-03-06T11:30:48.142Z,14.04
2019-03-06T11:31:58.380Z,14.02
2019-03-06T11:33:08.994Z,14
2019-03-06T11:34:19.232Z,13.84
2019-03-06T11:35:29.423Z,13.61
2019-03-06T11:36:39.673Z,13.67
2019-03-06T11:37:49.877Z,13.55
2019-03-06T11:39:00.041Z,13.49
2019-03-06T11:40:10.207Z,13.55
2019-03-06T11:41:20.362Z,13.46
2019-03-06T11:42:30.482Z,13.54
2019-03-06T11:43:41.065Z,13.55
2019-03-06T11:44:51.926Z,13.56
2019-03-06T11:46:02.948Z,13.58
2019-03-06T11:47:13.370Z,13.63
2019-03-06T11:48:23.300Z,13.77
2019-03-06T11:49:33.475Z,13.74
2019-03-06T11:50:46.119Z,13.77
2019-03-06T11:51:56.320Z,13.81
2019-03-06T11:53:06.484Z,13.76
2019-03-06T11:54:16.668Z,13.79
2019-03-06T11:55:26.867Z,13.76
2019-03-06T11:56:37.072Z,13.82
2019-03-06T11:57:47.275Z,14.03
2019-03-06T11:58:57.461Z,14.06
2019-03-06T12:00:07.677Z,14.11
2019-03-06T12:01:18.291Z,14.14
2019-03-06T12:02:28.520Z,14.07
2019-03-06T12:03:38.483Z,14.09
2019-03-06T12:04:48.671Z,14.11
2019-03-06T12:05:58.893Z,14.09
2019-03-06T12:07:09.088Z,13.91
2019-03-06T12:08:19.320Z,13.84
2019-03-06T12:09:28.893Z,13.74
2019-03-06T12:10:39.099Z,13.56
2019-03-06T12:11:49.312Z,13.51
2019-03-06T12:12:59.541Z,13.36
2019-03-06T12:14:09.740Z,13.27
2019-03-06T12:15:19.929Z,13.27
2019-03-06T12:16:30.126Z,13.31
2019-03-06T12:17:49.840Z,13.66
2019-03-06T12:19:00.046Z,13.63
2019-03-06T12:20:13.381Z,13.79
2019-03-06T12:21:23.599Z,13.91
2019-03-06T12:22:33.428Z,14.02
2019-03-06T12:23:44.258Z,13.92
2019-03-06T12:24:54.446Z,13.79
2019-03-06T12:26:04.638Z,13.79
2019-03-06T12:27:14.811Z,13.74
2019-03-06T12:28:25.011Z,13.7
2019-03-06T12:29:35.203Z,13.59
2019-03-06T12:30:45.561Z,13.59
2019-03-06T12:31:56.318Z,13.64
2019-03-06T12:33:07.148Z,13.58
2019-03-06T12:34:20.758Z,13.61
2019-03-06T12:35:31.351Z,13.58
2019-03-06T12:36:41.530Z,13.55
2019-03-06T12:37:52.261Z,13.64
2019-03-06T12:39:02.413Z,13.52
2019-03-06T12:40:17.427Z,13.46
2019-03-06T12:41:27.579Z,13.46
2019-03-06T12:42:37.401Z,13.45
2019-03-06T12:43:49.606Z,13.67
2019-03-06T12:44:59.774Z,13.44
2019-03-06T12:46:09.938Z,13.21
2019-03-06T12:47:28.841Z,12.89
2019-03-06T12:48:39.981Z,12.85
2019-03-06T12:49:50.125Z,12.57
2019-03-06T12:51:01.414Z,12.35
2019-03-06T12:52:12.001Z,12.15
2019-03-06T12:53:22.152Z,12.07
2019-03-06T12:54:32.294Z,11.99
2019-03-06T12:55:42.193Z,11.89
2019-03-06T12:56:52.348Z,11.76
2019-03-06T12:58:04.602Z,11.62
2019-03-06T12:59:15.246Z,11.61
2019-03-06T13:00:26.126Z,11.46
2019-03-06T13:01:36.749Z,11.52
2019-03-06T13:02:47.307Z,11.59
2019-03-06T13:03:57.436Z,11.48
2019-03-06T13:05:07.580Z,11.45
